sensor_id;sensor_type;location;lat;lon;timestamp;pressure;altitude;pressure_sealevel;temperature;humidity
74794;BME280;63320;50.768;6.724;2024-02-28T00:00:33;100618.22;;;3.96;95.88
74794;BME280;63320;50.768;6.724;2024-02-28T00:02:58;100617.84;;;4.22;93.90
74794;BME280;63320;50.768;6.724;2024-02-28T00:05:23;100622.06;;;4.29;92.25
74794;BME280;63320;50.768;6.724;2024-02-28T00:07:50;100623.66;;;4.38;90.88
74794;BME280;63320;50.768;6.724;2024-02-28T00:10:16;100639.88;;;3.98;91.91
74794;BME280;63320;50.768;6.724;2024-02-28T00:12:41;100641.00;;;3.80;92.52
74794;BME280;63320;50.768;6.724;2024-02-28T00:15:07;100638.78;;;3.50;94.72
74794;BME280;63320;50.768;6.724;2024-02-28T00:17:32;100637.00;;;3.55;95.33
74794;BME280;63320;50.768;6.724;2024-02-28T00:19:58;100639.44;;;3.69;95.08
74794;BME280;63320;50.768;6.724;2024-02-28T00:22:23;100641.75;;;3.88;95.12
74794;BME280;63320;50.768;6.724;2024-02-28T00:24:50;100637.56;;;4.35;92.92
74794;BME280;63320;50.768;6.724;2024-02-28T00:27:15;100642.47;;;4.00;94.09
74794;BME280;63320;50.768;6.724;2024-02-28T00:29:40;100649.13;;;3.54;94.79
74794;BME280;63320;50.768;6.724;2024-02-28T00:32:06;100653.72;;;3.34;97.93
74794;BME280;63320;50.768;6.724;2024-02-28T00:34:31;100663.97;;;3.46;99.88
74794;BME280;63320;50.768;6.724;2024-02-28T00:36:57;100666.84;;;3.20;98.75
74794;BME280;63320;50.768;6.724;2024-02-28T00:39:22;100664.34;;;3.11;100.00
74794;BME280;63320;50.768;6.724;2024-02-28T00:41:49;100667.50;;;3.42;100.00
74794;BME280;63320;50.768;6.724;2024-02-28T00:44:14;100663.78;;;3.60;99.42
74794;BME280;63320;50.768;6.724;2024-02-28T00:46:40;100661.94;;;3.70;99.07
74794;BME280;63320;50.768;6.724;2024-02-28T00:49:05;100654.31;;;3.57;99.82
74794;BME280;63320;50.768;6.724;2024-02-28T00:51:31;100653.75;;;3.31;100.00
74794;BME280;63320;50.768;6.724;2024-02-28T00:53:56;100649.13;;;3.57;100.00
74794;BME280;63320;50.768;6.724;2024-02-28T00:56:21;100660.13;;;3.78;99.82
74794;BME280;63320;50.768;6.724;2024-02-28T00:58:48;100662.53;;;3.92;99.05
74794;BME280;63320;50.768;6.724;2024-02-28T01:01:14;100669.41;;;3.96;98.14
74794;BME280;63320;50.768;6.724;2024-02-28T01:03:39;100669.72;;;3.73;100.00
74794;BME280;63320;50.768;6.724;2024-02-28T01:06:04;100673.19;;;3.73;100.00
74794;BME280;63320;50.768;6.724;2024-02-28T01:08:30;100677.72;;;3.57;100.00
74794;BME280;63320;50.768;6.724;2024-02-28T01:10:55;100675.53;;;3.90;100.00
74794;BME280;63320;50.768;6.724;2024-02-28T01:13:21;100666.84;;;3.93;99.37
74794;BME280;63320;50.768;6.724;2024-02-28T01:15:48;100668.50;;;3.98;99.06
74794;BME280;63320;50.768;6.724;2024-02-28T01:18:13;100666.00;;;3.90;99.53
74794;BME280;63320;50.768;6.724;2024-02-28T01:20:38;100666.06;;;3.86;98.58
74794;BME280;63320;50.768;6.724;2024-02-28T01:23:04;100659.19;;;4.42;98.07
74794;BME280;63320;50.768;6.724;2024-02-28T01:25:29;100662.28;;;4.64;96.01
74794;BME280;63320;50.768;6.724;2024-02-28T01:27:55;100637.50;;;4.40;96.23
74794;BME280;63320;50.768;6.724;2024-02-28T01:30:21;100637.94;;;4.65;95.63
74794;BME280;63320;50.768;6.724;2024-02-28T01:32:48;100640.38;;;4.76;95.07
74794;BME280;63320;50.768;6.724;2024-02-28T01:35:13;100639.84;;;4.55;96.16
74794;BME280;63320;50.768;6.724;2024-02-28T01:37:39;100645.06;;;4.55;95.29
74794;BME280;63320;50.768;6.724;2024-02-28T01:40:05;100644.66;;;4.26;97.55
74794;BME280;63320;50.768;6.724;2024-02-28T01:42:31;100648.19;;;4.76;95.10
74794;BME280;63320;50.768;6.724;2024-02-28T01:44:56;100649.47;;;4.50;95.47
74794;BME280;63320;50.768;6.724;2024-02-28T01:47:22;100646.94;;;4.47;96.81
74794;BME280;63320;50.768;6.724;2024-02-28T01:49:48;100640.31;;;4.79;94.91
74794;BME280;63320;50.768;6.724;2024-02-28T01:52:15;100647.13;;;4.87;94.20
74794;BME280;63320;50.768;6.724;2024-02-28T01:54:41;100651.97;;;4.56;94.94
74794;BME280;63320;50.768;6.724;2024-02-28T01:57:07;100645.84;;;4.60;94.74
74794;BME280;63320;50.768;6.724;2024-02-28T01:59:34;100647.16;;;4.84;94.46
74794;BME280;63320;50.768;6.724;2024-02-28T02:02:00;100654.28;;;4.75;94.47
74794;BME280;63320;50.768;6.724;2024-02-28T02:04:25;100644.16;;;4.56;95.01
74794;BME280;63320;50.768;6.724;2024-02-28T02:06:52;100656.47;;;4.47;96.04
74794;BME280;63320;50.768;6.724;2024-02-28T02:09:17;100654.91;;;4.36;95.59
74794;BME280;63320;50.768;6.724;2024-02-28T02:11:43;100652.34;;;4.35;95.98
74794;BME280;63320;50.768;6.724;2024-02-28T02:14:08;100647.66;;;4.57;94.95
74794;BME280;63320;50.768;6.724;2024-02-28T02:16:34;100656.53;;;4.44;94.34
74794;BME280;63320;50.768;6.724;2024-02-28T02:18:59;100648.13;;;4.28;96.15
74794;BME280;63320;50.768;6.724;2024-02-28T02:21:30;100653.63;;;4.63;95.11
74794;BME280;63320;50.768;6.724;2024-02-28T02:23:56;100652.25;;;4.39;94.85
74794;BME280;63320;50.768;6.724;2024-02-28T02:26:22;100643.84;;;4.24;96.26
74794;BME280;63320;50.768;6.724;2024-02-28T02:28:47;100648.66;;;4.48;95.54
74794;BME280;63320;50.768;6.724;2024-02-28T02:31:13;100643.75;;;4.30;95.98
74794;BME280;63320;50.768;6.724;2024-02-28T02:33:39;100651.16;;;4.54;95.89
74794;BME280;63320;50.768;6.724;2024-02-28T02:36:04;100642.75;;;4.38;95.82
74794;BME280;63320;50.768;6.724;2024-02-28T02:38:30;100643.97;;;4.68;94.33
74794;BME280;63320;50.768;6.724;2024-02-28T02:40:57;100641.69;;;4.50;93.89
74794;BME280;63320;50.768;6.724;2024-02-28T02:43:22;100636.88;;;4.24;96.15
74794;BME280;63320;50.768;6.724;2024-02-28T02:45:47;100640.81;;;4.50;95.67
74794;BME280;63320;50.768;6.724;2024-02-28T02:48:13;100637.72;;;4.28;95.36
74794;BME280;63320;50.768;6.724;2024-02-28T02:50:38;100644.72;;;4.21;96.08
74794;BME280;63320;50.768;6.724;2024-02-28T02:53:04;100641.97;;;4.33;95.66
74794;BME280;63320;50.768;6.724;2024-02-28T02:55:31;100654.44;;;4.10;96.78
74794;BME280;63320;50.768;6.724;2024-02-28T02:57:58;100645.13;;;3.97;96.68
74794;BME280;63320;50.768;6.724;2024-02-28T03:00:23;100656.97;;;4.18;96.52
74794;BME280;63320;50.768;6.724;2024-02-28T03:02:49;100653.63;;;4.08;96.12
74794;BME280;63320;50.768;6.724;2024-02-28T03:05:14;100656.81;;;4.25;95.93
74794;BME280;63320;50.768;6.724;2024-02-28T03:07:40;100653.00;;;4.46;95.03
74794;BME280;63320;50.768;6.724;2024-02-28T03:10:06;100654.25;;;4.24;95.36
74794;BME280;63320;50.768;6.724;2024-02-28T03:12:32;100659.22;;;4.39;95.42
74794;BME280;63320;50.768;6.724;2024-02-28T03:14:59;100653.69;;;4.59;94.03
74794;BME280;63320;50.768;6.724;2024-02-28T03:17:24;100658.75;;;4.11;94.32
74794;BME280;63320;50.768;6.724;2024-02-28T03:19:50;100657.13;;;4.07;96.35
74794;BME280;63320;50.768;6.724;2024-02-28T03:22:15;100666.78;;;3.97;96.11
74794;BME280;63320;50.768;6.724;2024-02-28T03:24:40;100656.38;;;3.96;96.79
74794;BME280;63320;50.768;6.724;2024-02-28T03:27:06;100654.56;;;4.02;96.43
74794;BME280;63320;50.768;6.724;2024-02-28T03:29:31;100651.91;;;4.07;96.63
74794;BME280;63320;50.768;6.724;2024-02-28T03:31:58;100662.44;;;3.96;95.99
74794;BME280;63320;50.768;6.724;2024-02-28T03:34:24;100664.63;;;4.27;95.45
74794;BME280;63320;50.768;6.724;2024-02-28T03:36:49;100658.06;;;4.00;95.58
74794;BME280;63320;50.768;6.724;2024-02-28T03:39:15;100664.75;;;4.16;95.89
74794;BME280;63320;50.768;6.724;2024-02-28T03:41:40;100676.31;;;3.98;94.94
74794;BME280;63320;50.768;6.724;2024-02-28T03:44:05;100666.63;;;4.06;95.85
74794;BME280;63320;50.768;6.724;2024-02-28T03:46:31;100663.50;;;4.43;94.00
74794;BME280;63320;50.768;6.724;2024-02-28T03:48:58;100678.34;;;4.36;93.43
74794;BME280;63320;50.768;6.724;2024-02-28T03:51:23;100682.38;;;3.99;94.65
74794;BME280;63320;50.768;6.724;2024-02-28T03:53:48;100676.34;;;3.97;95.11
74794;BME280;63320;50.768;6.724;2024-02-28T03:56:21;100688.59;;;3.87;96.06
74794;BME280;63320;50.768;6.724;2024-02-28T03:58:47;100687.84;;;3.79;95.82
74794;BME280;63320;50.768;6.724;2024-02-28T04:01:12;100686.97;;;3.78;96.54
74794;BME280;63320;50.768;6.724;2024-02-28T04:03:37;100685.59;;;4.18;95.79
74794;BME280;63320;50.768;6.724;2024-02-28T04:06:04;100685.75;;;4.07;94.95
74794;BME280;63320;50.768;6.724;2024-02-28T04:08:30;100690.31;;;3.86;95.89
74794;BME280;63320;50.768;6.724;2024-02-28T04:10:55;100679.34;;;4.26;95.00
74794;BME280;63320;50.768;6.724;2024-02-28T04:13:21;100683.31;;;4.53;92.60
74794;BME280;63320;50.768;6.724;2024-02-28T04:15:46;100685.81;;;4.02;94.12
74794;BME280;63320;50.768;6.724;2024-02-28T04:18:11;100687.34;;;4.14;94.89
74794;BME280;63320;50.768;6.724;2024-02-28T04:20:37;100687.53;;;4.00;95.72
74794;BME280;63320;50.768;6.724;2024-02-28T04:23:04;100692.88;;;3.93;94.98
74794;BME280;63320;50.768;6.724;2024-02-28T04:25:29;100695.34;;;4.00;95.39
74794;BME280;63320;50.768;6.724;2024-02-28T04:27:54;100694.53;;;3.98;95.78
74794;BME280;63320;50.768;6.724;2024-02-28T04:30:20;100692.59;;;4.12;95.09
74794;BME280;63320;50.768;6.724;2024-02-28T04:32:45;100688.84;;;4.32;93.82
74794;BME280;63320;50.768;6.724;2024-02-28T04:35:11;100691.66;;;4.18;94.45
74794;BME280;63320;50.768;6.724;2024-02-28T04:37:36;100704.28;;;3.82;95.60
74794;BME280;63320;50.768;6.724;2024-02-28T04:40:04;100711.00;;;3.99;95.87
74794;BME280;63320;50.768;6.724;2024-02-28T04:42:29;100709.00;;;4.18;94.95
74794;BME280;63320;50.768;6.724;2024-02-28T04:44:54;100711.63;;;4.14;95.52
74794;BME280;63320;50.768;6.724;2024-02-28T04:47:20;100703.34;;;3.88;95.32
74794;BME280;63320;50.768;6.724;2024-02-28T04:49:45;100710.81;;;4.12;94.05
74794;BME280;63320;50.768;6.724;2024-02-28T04:52:11;100709.41;;;3.87;95.46
74794;BME280;63320;50.768;6.724;2024-02-28T04:54:36;100723.75;;;4.17;95.15
74794;BME280;63320;50.768;6.724;2024-02-28T04:57:03;100729.75;;;4.21;94.04
74794;BME280;63320;50.768;6.724;2024-02-28T04:59:28;100726.50;;;4.05;95.40
74794;BME280;63320;50.768;6.724;2024-02-28T05:01:54;100724.78;;;4.07;95.31
74794;BME280;63320;50.768;6.724;2024-02-28T05:04:19;100722.34;;;3.93;95.11
74794;BME280;63320;50.768;6.724;2024-02-28T05:06:45;100731.00;;;3.94;96.42
74794;BME280;63320;50.768;6.724;2024-02-28T05:09:10;100740.44;;;4.02;95.65
74794;BME280;63320;50.768;6.724;2024-02-28T05:11:35;100742.75;;;4.24;94.76
74794;BME280;63320;50.768;6.724;2024-02-28T05:14:02;100741.94;;;4.20;94.86
74794;BME280;63320;50.768;6.724;2024-02-28T05:16:28;100756.44;;;4.36;93.81
74794;BME280;63320;50.768;6.724;2024-02-28T05:18:53;100747.28;;;4.09;93.51
74794;BME280;63320;50.768;6.724;2024-02-28T05:21:18;100743.91;;;4.01;94.69
74794;BME280;63320;50.768;6.724;2024-02-28T05:23:44;100746.38;;;4.12;93.81
74794;BME280;63320;50.768;6.724;2024-02-28T05:26:09;100747.34;;;4.05;94.39
74794;BME280;63320;50.768;6.724;2024-02-28T05:28:35;100765.84;;;3.82;94.48
74794;BME280;63320;50.768;6.724;2024-02-28T05:31:02;100754.56;;;3.83;92.93
74794;BME280;63320;50.768;6.724;2024-02-28T05:33:44;100758.59;;;4.05;93.50
74794;BME280;63320;50.768;6.724;2024-02-28T05:36:09;100774.41;;;3.92;93.51
74794;BME280;63320;50.768;6.724;2024-02-28T05:38:34;100771.84;;;3.85;94.02
74794;BME280;63320;50.768;6.724;2024-02-28T05:41:00;100781.97;;;3.30;95.10
74794;BME280;63320;50.768;6.724;2024-02-28T05:43:25;100779.06;;;3.62;96.00
74794;BME280;63320;50.768;6.724;2024-02-28T05:45:50;100775.19;;;3.14;96.84
74794;BME280;63320;50.768;6.724;2024-02-28T05:48:17;100777.59;;;3.35;98.28
74794;BME280;63320;50.768;6.724;2024-02-28T05:50:43;100776.09;;;3.09;99.56
74794;BME280;63320;50.768;6.724;2024-02-28T05:53:08;100774.53;;;2.92;100.00
74794;BME280;63320;50.768;6.724;2024-02-28T05:55:33;100779.41;;;3.27;100.00
74794;BME280;63320;50.768;6.724;2024-02-28T05:57:59;100784.28;;;3.62;98.63
74794;BME280;63320;50.768;6.724;2024-02-28T06:00:24;100781.47;;;2.88;98.38
74794;BME280;63320;50.768;6.724;2024-02-28T06:02:49;100790.91;;;3.01;100.00
74794;BME280;63320;50.768;6.724;2024-02-28T06:05:16;100791.00;;;2.84;99.92
74794;BME280;63320;50.768;6.724;2024-02-28T06:07:42;100800.66;;;2.72;100.00
74794;BME280;63320;50.768;6.724;2024-02-28T06:10:08;100800.16;;;3.30;100.00
74794;BME280;63320;50.768;6.724;2024-02-28T06:12:33;100808.72;;;3.43;96.80
74794;BME280;63320;50.768;6.724;2024-02-28T06:14:59;100812.94;;;3.54;94.51
74794;BME280;63320;50.768;6.724;2024-02-28T06:17:24;100813.16;;;3.33;93.70
74794;BME280;63320;50.768;6.724;2024-02-28T06:19:49;100815.00;;;3.19;95.28
74794;BME280;63320;50.768;6.724;2024-02-28T06:22:16;100818.41;;;3.24;95.85
74794;BME280;63320;50.768;6.724;2024-02-28T06:24:41;100820.31;;;3.00;95.72
74794;BME280;63320;50.768;6.724;2024-02-28T06:27:07;100816.91;;;2.97;95.24
74794;BME280;63320;50.768;6.724;2024-02-28T06:29:35;100821.59;;;3.55;93.52
74794;BME280;63320;50.768;6.724;2024-02-28T06:32:00;100832.66;;;3.75;91.57
74794;BME280;63320;50.768;6.724;2024-02-28T06:34:25;100818.56;;;3.95;90.59
74794;BME280;63320;50.768;6.724;2024-02-28T06:36:51;100823.75;;;3.98;89.72
74794;BME280;63320;50.768;6.724;2024-02-28T06:39:18;100821.06;;;4.05;89.71
74794;BME280;63320;50.768;6.724;2024-02-28T06:41:43;100815.84;;;4.07;89.70
74794;BME280;63320;50.768;6.724;2024-02-28T06:44:08;100817.75;;;3.91;90.25
74794;BME280;63320;50.768;6.724;2024-02-28T06:46:34;100825.56;;;3.93;90.16
74794;BME280;63320;50.768;6.724;2024-02-28T06:48:59;100820.34;;;3.93;90.12
74794;BME280;63320;50.768;6.724;2024-02-28T06:51:24;100816.69;;;4.09;90.26
74794;BME280;63320;50.768;6.724;2024-02-28T06:53:50;100827.63;;;4.37;90.20
74794;BME280;63320;50.768;6.724;2024-02-28T06:56:17;100821.16;;;3.96;89.49
74794;BME280;63320;50.768;6.724;2024-02-28T06:58:42;100820.28;;;3.99;90.24
74794;BME280;63320;50.768;6.724;2024-02-28T07:01:08;100815.84;;;4.07;90.24
74794;BME280;63320;50.768;6.724;2024-02-28T07:03:33;100823.69;;;4.01;90.20
74794;BME280;63320;50.768;6.724;2024-02-28T07:05:58;100833.41;;;3.86;91.00
74794;BME280;63320;50.768;6.724;2024-02-28T07:08:24;100834.00;;;4.10;91.53
74794;BME280;63320;50.768;6.724;2024-02-28T07:10:49;100841.19;;;3.86;91.14
74794;BME280;63320;50.768;6.724;2024-02-28T07:13:16;100842.69;;;4.10;90.13
74794;BME280;63320;50.768;6.724;2024-02-28T07:15:41;100842.69;;;4.10;90.18
74794;BME280;63320;50.768;6.724;2024-02-28T07:18:07;100842.69;;;4.12;90.18
74794;BME280;63320;50.768;6.724;2024-02-28T07:20:32;100838.16;;;4.28;89.36
74794;BME280;63320;50.768;6.724;2024-02-28T07:22:58;100838.09;;;4.31;89.55
74794;BME280;63320;50.768;6.724;2024-02-28T07:25:23;100841.91;;;4.02;91.10
74794;BME280;63320;50.768;6.724;2024-02-28T07:27:49;100839.25;;;4.08;91.73
74794;BME280;63320;50.768;6.724;2024-02-28T07:30:16;100847.16;;;3.96;92.49
74794;BME280;63320;50.768;6.724;2024-02-28T07:32:41;100849.84;;;3.92;92.44
74794;BME280;63320;50.768;6.724;2024-02-28T07:35:07;100849.78;;;3.96;92.47
74794;BME280;63320;50.768;6.724;2024-02-28T07:37:32;100854.66;;;4.27;91.67
74794;BME280;63320;50.768;6.724;2024-02-28T07:39:58;100852.19;;;4.13;89.94
74794;BME280;63320;50.768;6.724;2024-02-28T07:42:23;100853.09;;;4.12;90.75
74794;BME280;63320;50.768;6.724;2024-02-28T07:44:49;100847.81;;;4.15;90.01
74794;BME280;63320;50.768;6.724;2024-02-28T07:47:16;100864.34;;;4.12;90.32
74794;BME280;63320;50.768;6.724;2024-02-28T07:49:43;100863.50;;;4.10;91.19
74794;BME280;63320;50.768;6.724;2024-02-28T07:52:08;100859.03;;;4.22;91.25
74794;BME280;63320;50.768;6.724;2024-02-28T07:54:34;100854.69;;;4.24;91.56
74794;BME280;63320;50.768;6.724;2024-02-28T07:56:59;100862.50;;;4.21;91.98
74794;BME280;63320;50.768;6.724;2024-02-28T07:59:25;100860.75;;;4.24;92.46
74794;BME280;63320;50.768;6.724;2024-02-28T08:01:50;100866.09;;;4.12;92.47
74794;BME280;63320;50.768;6.724;2024-02-28T08:04:17;100865.88;;;4.32;93.28
74794;BME280;63320;50.768;6.724;2024-02-28T08:06:42;100859.72;;;4.37;93.84
74794;BME280;63320;50.768;6.724;2024-02-28T08:09:08;100860.66;;;4.32;93.16
74794;BME280;63320;50.768;6.724;2024-02-28T08:11:33;100861.28;;;4.52;91.99
74794;BME280;63320;50.768;6.724;2024-02-28T08:13:58;100862.00;;;4.62;91.09
74794;BME280;63320;50.768;6.724;2024-02-28T08:16:24;100868.19;;;4.52;91.15
74794;BME280;63320;50.768;6.724;2024-02-28T08:18:49;100873.41;;;4.52;91.44
74794;BME280;63320;50.768;6.724;2024-02-28T08:21:16;100875.84;;;4.65;91.10
74794;BME280;63320;50.768;6.724;2024-02-28T08:23:41;100882.09;;;4.51;91.66
74794;BME280;63320;50.768;6.724;2024-02-28T08:26:07;100888.84;;;4.65;91.11
74794;BME280;63320;50.768;6.724;2024-02-28T08:28:32;100894.84;;;4.74;90.73
74794;BME280;63320;50.768;6.724;2024-02-28T08:30:58;100886.31;;;4.62;91.01
74794;BME280;63320;50.768;6.724;2024-02-28T08:33:24;100889.00;;;4.55;91.43
74794;BME280;63320;50.768;6.724;2024-02-28T08:35:49;100889.53;;;4.80;90.57
74794;BME280;63320;50.768;6.724;2024-02-28T08:38:16;100885.09;;;4.88;90.53
74794;BME280;63320;50.768;6.724;2024-02-28T08:40:41;100884.97;;;4.96;90.09
74794;BME280;63320;50.768;6.724;2024-02-28T08:43:07;100894.72;;;4.83;90.94
74794;BME280;63320;50.768;6.724;2024-02-28T08:45:32;100899.09;;;4.79;90.90
74794;BME280;63320;50.768;6.724;2024-02-28T08:47:57;100901.06;;;4.63;91.26
74794;BME280;63320;50.768;6.724;2024-02-28T08:50:23;100901.75;;;4.78;91.52
74794;BME280;63320;50.768;6.724;2024-02-28T08:52:48;100902.53;;;4.83;90.83
74794;BME280;63320;50.768;6.724;2024-02-28T08:55:15;100899.88;;;4.86;91.36
74794;BME280;63320;50.768;6.724;2024-02-28T08:57:40;100893.88;;;4.79;91.63
74794;BME280;63320;50.768;6.724;2024-02-28T09:00:07;100895.56;;;4.82;91.41
74794;BME280;63320;50.768;6.724;2024-02-28T09:02:32;100897.31;;;4.81;91.59
74794;BME280;63320;50.768;6.724;2024-02-28T09:04:57;100899.28;;;4.67;91.29
74794;BME280;63320;50.768;6.724;2024-02-28T09:07:23;100898.38;;;4.70;91.03
74794;BME280;63320;50.768;6.724;2024-02-28T09:09:48;100890.19;;;4.97;91.52
74794;BME280;63320;50.768;6.724;2024-02-28T09:12:15;100892.72;;;5.00;90.66
74794;BME280;63320;50.768;6.724;2024-02-28T09:14:40;100894.31;;;5.10;90.21
74794;BME280;63320;50.768;6.724;2024-02-28T09:17:06;100905.81;;;4.96;90.67
74794;BME280;63320;50.768;6.724;2024-02-28T09:19:31;100899.50;;;5.12;90.11
74794;BME280;63320;50.768;6.724;2024-02-28T09:21:57;100903.00;;;5.11;89.72
74794;BME280;63320;50.768;6.724;2024-02-28T09:24:23;100912.75;;;4.97;89.92
74794;BME280;63320;50.768;6.724;2024-02-28T09:26:48;100913.25;;;5.23;89.43
74794;BME280;63320;50.768;6.724;2024-02-28T09:29:15;100913.22;;;5.25;88.92
74794;BME280;63320;50.768;6.724;2024-02-28T09:31:40;100906.22;;;5.27;88.86
74794;BME280;63320;50.768;6.724;2024-02-28T09:34:06;100902.78;;;5.25;89.10
74794;BME280;63320;50.768;6.724;2024-02-28T09:36:31;100907.03;;;5.30;88.70
74794;BME280;63320;50.768;6.724;2024-02-28T09:38:56;100914.91;;;5.29;89.48
74794;BME280;63320;50.768;6.724;2024-02-28T09:41:22;100912.97;;;5.40;88.93
74794;BME280;63320;50.768;6.724;2024-02-28T09:43:48;100909.63;;;5.33;89.31
74794;BME280;63320;50.768;6.724;2024-02-28T09:46:16;100922.22;;;6.57;93.34
74794;BME280;63320;50.768;6.724;2024-02-28T09:48:41;100917.63;;;5.75;87.86
74794;BME280;63320;50.768;6.724;2024-02-28T09:51:08;100917.38;;;5.38;89.10
74794;BME280;63320;50.768;6.724;2024-02-28T09:53:34;100924.25;;;5.43;89.45
74794;BME280;63320;50.768;6.724;2024-02-28T09:55:59;100924.97;;;5.52;88.90
74794;BME280;63320;50.768;6.724;2024-02-28T09:58:25;100925.13;;;5.41;88.68
74794;BME280;63320;50.768;6.724;2024-02-28T10:00:52;100917.19;;;5.49;88.73
74794;BME280;63320;50.768;6.724;2024-02-28T10:03:24;100910.16;;;5.54;89.30
74794;BME280;63320;50.768;6.724;2024-02-28T10:05:50;100905.94;;;5.45;89.13
74794;BME280;63320;50.768;6.724;2024-02-28T10:08:15;100909.34;;;5.50;89.06
74794;BME280;63320;50.768;6.724;2024-02-28T10:10:45;100904.81;;;5.61;88.86
74794;BME280;63320;50.768;6.724;2024-02-28T10:13:10;100905.66;;;5.62;88.99
74794;BME280;63320;50.768;6.724;2024-02-28T10:15:36;100902.00;;;5.74;88.26
74794;BME280;63320;50.768;6.724;2024-02-28T10:18:01;100900.97;;;5.82;88.25
74794;BME280;63320;50.768;6.724;2024-02-28T10:20:30;100899.66;;;5.58;88.19
74794;BME280;63320;50.768;6.724;2024-02-28T10:22:55;100893.19;;;5.79;88.30
74794;BME280;63320;50.768;6.724;2024-02-28T10:25:21;100893.25;;;5.78;89.22
74794;BME280;63320;50.768;6.724;2024-02-28T10:27:46;100900.88;;;5.88;89.02
74794;BME280;63320;50.768;6.724;2024-02-28T10:30:12;100887.88;;;5.85;88.59
74794;BME280;63320;50.768;6.724;2024-02-28T10:32:48;100884.34;;;5.88;89.06
74794;BME280;63320;50.768;6.724;2024-02-28T10:35:16;100884.31;;;5.89;88.49
74794;BME280;63320;50.768;6.724;2024-02-28T10:37:44;100885.16;;;5.91;88.45
74794;BME280;63320;50.768;6.724;2024-02-28T10:40:11;100888.72;;;5.86;89.59
74794;BME280;63320;50.768;6.724;2024-02-28T10:42:39;100879.78;;;6.01;89.26
74794;BME280;63320;50.768;6.724;2024-02-28T10:45:08;100891.97;;;6.00;89.04
74794;BME280;63320;50.768;6.724;2024-02-28T10:47:34;100889.13;;;6.12;88.47
74794;BME280;63320;50.768;6.724;2024-02-28T10:50:00;100886.34;;;6.21;87.23
74794;BME280;63320;50.768;6.724;2024-02-28T10:52:26;100890.63;;;6.26;86.95
74794;BME280;63320;50.768;6.724;2024-02-28T10:54:54;100889.72;;;6.27;87.35
74794;BME280;63320;50.768;6.724;2024-02-28T10:57:24;100893.22;;;6.26;88.10
74794;BME280;63320;50.768;6.724;2024-02-28T10:59:50;100898.44;;;6.26;88.33
74794;BME280;63320;50.768;6.724;2024-02-28T11:02:16;100884.28;;;6.39;87.16
74794;BME280;63320;50.768;6.724;2024-02-28T11:04:41;100895.50;;;6.42;86.63
74794;BME280;63320;50.768;6.724;2024-02-28T11:07:07;100895.31;;;6.53;86.75
74794;BME280;63320;50.768;6.724;2024-02-28T11:09:34;100891.88;;;6.49;86.83
74794;BME280;63320;50.768;6.724;2024-02-28T11:12:00;100884.84;;;6.53;86.38
74794;BME280;63320;50.768;6.724;2024-02-28T11:14:29;100886.56;;;6.54;86.56
74794;BME280;63320;50.768;6.724;2024-02-28T11:17:01;100894.50;;;6.49;87.26
74794;BME280;63320;50.768;6.724;2024-02-28T11:19:28;100884.72;;;6.59;86.92
74794;BME280;63320;50.768;6.724;2024-02-28T11:21:54;100888.81;;;6.71;86.17
74794;BME280;63320;50.768;6.724;2024-02-28T11:24:22;100880.03;;;6.75;85.46
74794;BME280;63320;50.768;6.724;2024-02-28T11:26:48;100872.94;;;6.80;85.71
74794;BME280;63320;50.768;6.724;2024-02-28T11:29:15;100868.63;;;6.78;84.87
74794;BME280;63320;50.768;6.724;2024-02-28T11:31:40;100870.22;;;6.85;84.36
74794;BME280;63320;50.768;6.724;2024-02-28T11:34:06;100870.03;;;6.92;83.37
74794;BME280;63320;50.768;6.724;2024-02-28T11:36:31;100875.69;;;6.72;82.47
74794;BME280;63320;50.768;6.724;2024-02-28T11:38:57;100870.31;;;6.80;82.45
74794;BME280;63320;50.768;6.724;2024-02-28T11:41:25;100865.81;;;6.87;82.56
74794;BME280;63320;50.768;6.724;2024-02-28T11:43:51;100863.84;;;6.96;82.68
74794;BME280;63320;50.768;6.724;2024-02-28T11:46:18;100856.75;;;7.01;82.81
74794;BME280;63320;50.768;6.724;2024-02-28T11:48:43;100855.00;;;7.02;81.29
74794;BME280;63320;50.768;6.724;2024-02-28T11:51:09;100851.47;;;7.05;81.30
74794;BME280;63320;50.768;6.724;2024-02-28T11:53:34;100853.88;;;7.14;80.83
74794;BME280;63320;50.768;6.724;2024-02-28T11:55:59;100847.69;;;7.18;79.55
74794;BME280;63320;50.768;6.724;2024-02-28T11:58:25;100841.91;;;7.04;77.97
74794;BME280;63320;50.768;6.724;2024-02-28T12:00:51;100838.25;;;7.11;78.15
74794;BME280;63320;50.768;6.724;2024-02-28T12:03:22;100828.53;;;7.16;77.88
74794;BME280;63320;50.768;6.724;2024-02-28T12:05:48;100832.25;;;7.06;76.01
74794;BME280;63320;50.768;6.724;2024-02-28T12:08:14;100823.59;;;7.04;75.92
74794;BME280;63320;50.768;6.724;2024-02-28T12:10:39;100816.25;;;7.19;76.96
74794;BME280;63320;50.768;6.724;2024-02-28T12:13:05;100826.50;;;7.27;77.45
74794;BME280;63320;50.768;6.724;2024-02-28T12:15:30;100814.25;;;7.29;77.16
74794;BME280;63320;50.768;6.724;2024-02-28T12:17:56;100817.53;;;7.37;77.01
74794;BME280;63320;50.768;6.724;2024-02-28T12:20:23;100808.41;;;7.53;76.52
74794;BME280;63320;50.768;6.724;2024-02-28T12:22:49;100810.00;;;7.58;76.27
74794;BME280;63320;50.768;6.724;2024-02-28T12:25:14;100799.25;;;7.70;73.89
74794;BME280;63320;50.768;6.724;2024-02-28T12:27:40;100801.81;;;7.71;74.01
74794;BME280;63320;50.768;6.724;2024-02-28T12:30:06;100794.19;;;7.64;71.19
74794;BME280;63320;50.768;6.724;2024-02-28T12:32:32;100797.66;;;7.64;72.12
74794;BME280;63320;50.768;6.724;2024-02-28T12:34:57;100786.72;;;7.81;68.50
74794;BME280;63320;50.768;6.724;2024-02-28T12:37:24;100790.00;;;7.89;67.92
74794;BME280;63320;50.768;6.724;2024-02-28T12:39:49;100789.56;;;8.04;68.09
74794;BME280;63320;50.768;6.724;2024-02-28T12:42:15;100781.78;;;8.01;63.25
74794;BME280;63320;50.768;6.724;2024-02-28T12:44:40;100769.34;;;8.08;63.85
74794;BME280;63320;50.768;6.724;2024-02-28T12:47:06;100769.81;;;8.22;64.01
74794;BME280;63320;50.768;6.724;2024-02-28T12:49:31;100761.34;;;8.13;65.01
74794;BME280;63320;50.768;6.724;2024-02-28T12:51:57;100764.50;;;8.25;63.35